Metar Aviation Weather Data KORD

34°F Temp
10°F Dewpoint
% Humidity
Temperature
15 MPH
24 KM/H
13 KTS
220°
South West

Wind Speed
Clear
Conditions
Pressure 1032.22 (hPa) - 30.48 (in)
Visibility 10.0 (mi) - 16 (km)

Current Conditions
KORD
Metar :KORD 211851Z 22013G21KT 10SM CLR 01/M12 A3048 RMK AO2 SLP331 T00111122
Fri 21st February 13:51 pm

  Metar Aviation API Data Provided by https://www.checkwx.com/ PHP scripts by weather34.com ©2020